createdAt,value
2023-04-11T02:26:29.419Z,2.65
2023-04-11T02:28:56.269Z,2.70
2023-04-11T02:31:23.162Z,1.70
2023-04-11T02:49:14.326Z,2.58
2023-04-11T02:51:41.310Z,1.88
2023-04-11T02:54:08.295Z,2.13
2023-04-11T04:28:11.434Z,1.70
2023-04-11T04:30:38.173Z,2.55
2023-04-11T04:33:04.841Z,2.25
2023-04-11T04:35:31.500Z,1.80
2023-04-11T04:38:06.101Z,1.90
2023-04-11T05:39:45.369Z,1.88
2023-04-11T05:42:12.053Z,1.52
2023-04-11T05:44:40.067Z,1.90
2023-04-11T05:47:06.727Z,1.92
2023-04-11T05:49:33.317Z,2.05
2023-04-11T05:59:32.888Z,2.80
2023-04-11T06:01:59.564Z,2.78
2023-04-11T06:04:26.557Z,1.55
2023-04-11T06:06:53.576Z,1.92
2023-04-11T06:17:02.408Z,2.65
2023-04-11T06:19:28.998Z,1.92
2023-04-11T06:21:55.661Z,1.73
2023-04-11T06:24:36.041Z,2.40
2023-04-11T06:27:03.470Z,2.58
2023-04-11T06:29:30.707Z,2.35
2023-04-11T06:31:58.692Z,1.73
2023-04-11T06:34:25.547Z,1.77
2023-04-11T06:52:16.990Z,1.83
2023-04-11T06:54:43.916Z,2.92
2023-04-11T06:57:10.574Z,2.22
2023-04-11T06:59:37.544Z,2.47
2023-04-11T07:02:04.329Z,2.20
2023-04-11T07:16:05.033Z,1.80
2023-04-11T07:18:31.800Z,2.65
2023-04-11T07:20:58.426Z,2.03
2023-04-11T07:23:25.101Z,1.45
2023-04-11T07:25:51.792Z,1.88
2023-04-11T07:28:18.423Z,2.20
2023-04-11T07:30:45.027Z,2.47
2023-04-11T07:33:11.681Z,2.45
2023-04-11T07:50:53.315Z,1.85
2023-04-11T07:53:21.471Z,2.30
2023-04-11T07:55:48.333Z,2.05
2023-04-11T07:58:15.254Z,3.20
2023-04-11T08:00:41.888Z,1.45
2023-04-11T08:03:10.271Z,3.20
2023-04-11T08:20:51.221Z,1.80
2023-04-11T08:23:19.618Z,2.17
2023-04-11T08:25:46.712Z,1.10
2023-04-11T08:28:13.410Z,2.28
2023-04-11T08:30:40.035Z,1.85
2023-04-11T08:33:07.231Z,2.28
2023-04-11T08:54:51.680Z,1.98
2023-04-11T08:57:31.314Z,1.63
2023-04-11T09:00:19.054Z,1.75
2023-04-11T09:03:06.772Z,1.90
2023-04-11T09:24:39.197Z,2.72
2023-04-11T09:27:15.640Z,1.45
2023-04-11T09:29:48.905Z,1.30
2023-04-11T09:32:36.071Z,1.73
2023-04-11T09:42:48.551Z,1.60
2023-04-11T09:45:19.993Z,1.80
2023-04-11T09:47:47.764Z,1.60
2023-04-11T09:50:15.572Z,1.52
2023-04-11T10:08:14.432Z,1.40
2023-04-11T10:10:43.994Z,1.25
2023-04-11T10:13:35.386Z,1.83
2023-04-11T10:16:08.369Z,1.73
2023-04-11T10:18:56.095Z,1.38
2023-04-11T10:21:34.781Z,1.48
2023-04-11T10:24:18.277Z,1.35
2023-04-11T10:27:03.668Z,2.08
2023-04-11T10:29:33.542Z,1.05
2023-04-11T10:32:16.509Z,2.00
2023-04-11T10:34:52.347Z,1.33
2023-04-11T10:49:03.087Z,1.15
2023-04-11T10:51:33.764Z,1.25
2023-04-11T10:54:01.947Z,1.63
2023-04-11T11:11:42.928Z,0.95
2023-04-11T11:14:09.749Z,1.92
2023-04-11T11:16:36.547Z,1.50
2023-04-11T11:19:06.318Z,1.90
2023-04-11T11:57:51.680Z,1.45
2023-04-11T12:54:14.843Z,1.50
2023-04-11T12:56:41.473Z,1.20
2023-04-11T12:59:08.276Z,1.88
2023-04-11T13:01:34.948Z,0.93
2023-04-11T13:04:01.805Z,1.35
2023-04-11T13:06:29.667Z,0.68
2023-04-11T13:28:12.565Z,1.40
2023-04-11T13:30:39.244Z,1.10
2023-04-11T13:33:05.942Z,1.40
2023-04-11T13:35:32.632Z,0.95
2023-04-11T13:37:59.414Z,1.00
2023-04-11T13:40:26.026Z,1.20
2023-04-11T13:42:54.490Z,1.15
2023-04-11T15:14:29.371Z,1.67
2023-04-11T15:16:56.766Z,1.15
2023-04-11T15:19:23.528Z,1.30
2023-04-11T15:21:50.100Z,1.42
2023-04-11T15:24:17.014Z,1.67
2023-04-11T15:38:06.796Z,1.15
2023-04-11T15:40:33.451Z,1.23
2023-04-11T15:43:01.191Z,1.08
2023-04-11T15:45:28.102Z,1.65
2023-04-11T15:47:57.699Z,1.73
2023-04-11T16:01:48.033Z,1.30
2023-04-11T16:04:16.403Z,1.67
2023-04-11T16:06:44.088Z,1.17
2023-04-11T16:09:10.902Z,1.27
2023-04-11T16:19:28.165Z,1.38
2023-04-11T16:24:51.638Z,1.80
2023-04-11T17:09:41.364Z,1.65
2023-04-11T17:12:07.963Z,1.67
2023-04-11T17:14:36.672Z,1.50
2023-04-11T17:17:03.609Z,1.58
2023-04-11T17:51:49.080Z,1.30
2023-04-11T17:54:28.441Z,1.48
2023-04-11T17:56:56.196Z,1.88
2023-04-11T18:10:48.881Z,1.92
2023-04-11T18:13:15.465Z,2.38
2023-04-11T18:15:42.265Z,1.67
2023-04-11T18:42:58.660Z,1.35
2023-04-11T18:45:25.781Z,1.52
2023-04-11T18:47:53.006Z,1.58
2023-04-11T20:08:40.178Z,2.92
2023-04-11T20:11:06.956Z,2.88
2023-04-11T20:13:33.804Z,3.15
2023-04-11T20:16:01.145Z,2.75
2023-04-11T20:41:56.673Z,2.83
2023-04-11T20:44:23.902Z,4.10
2023-04-11T20:46:51.107Z,3.33
2023-04-11T20:49:18.221Z,3.30
2023-04-11T20:51:47.911Z,3.42
2023-04-11T20:54:14.610Z,2.78
2023-04-11T20:56:42.743Z,3.53
2023-04-11T20:59:09.581Z,2.97
2023-04-11T21:24:43.479Z,2.45
2023-04-11T21:27:10.326Z,2.38
2023-04-11T21:29:37.039Z,2.85
2023-04-11T21:32:04.380Z,2.60
2023-04-11T22:40:17.656Z,2.50
2023-04-11T22:42:46.884Z,2.30
2023-04-11T22:45:13.622Z,2.50
2023-04-11T22:47:45.488Z,3.30
2023-04-11T22:50:13.621Z,3.05
